createdAt,value
2019-05-10T01:27:28.241Z,18.53
2019-05-10T01:30:04.540Z,16.80
2019-05-10T01:32:45.492Z,18.03
2019-05-10T01:35:20.887Z,16.83
2019-05-10T01:38:01.874Z,17.60
2019-05-10T01:40:27.923Z,17.77
2019-05-10T01:42:56.552Z,16.47
2019-05-10T01:45:25.114Z,16.87
2019-05-10T01:47:53.804Z,15.87
2019-05-10T01:50:22.441Z,16.40
2019-05-10T01:52:50.991Z,17.03
2019-05-10T01:55:19.846Z,16.67
2019-05-10T02:00:40.933Z,15.87
2019-05-10T02:03:22.538Z,17.43
2019-05-10T02:06:01.355Z,16.37
2019-05-10T02:08:29.991Z,16.00
2019-05-10T02:10:58.730Z,15.50
2019-05-10T02:13:27.431Z,15.10
2019-05-10T02:15:56.284Z,17.13
2019-05-10T02:18:26.858Z,17.17
2019-05-10T02:20:55.816Z,15.70
2019-05-10T02:23:27.494Z,16.27
2019-05-10T02:26:09.640Z,17.63
2019-05-10T02:28:38.315Z,18.50
2019-05-10T02:31:08.543Z,17.60
2019-05-10T02:33:37.424Z,16.90
2019-05-10T02:36:08.476Z,15.47
2019-05-10T02:38:37.261Z,17.30
2019-05-10T02:41:05.971Z,18.13
2019-05-10T02:43:34.876Z,16.07
2019-05-10T02:46:03.693Z,17.57
2019-05-10T02:48:32.442Z,17.53
2019-05-10T02:51:02.945Z,18.47
2019-05-10T02:53:32.126Z,17.97
2019-05-10T02:56:02.796Z,17.90
2019-05-10T02:58:33.019Z,18.13
2019-05-10T03:01:03.873Z,16.93
2019-05-10T03:03:33.235Z,18.07
2019-05-10T03:06:04.391Z,16.97
2019-05-10T03:09:00.723Z,17.20
2019-05-10T03:11:35.915Z,17.90
2019-05-10T03:14:18.090Z,18.70
2019-05-10T03:16:57.553Z,17.77
2019-05-10T03:19:34.405Z,16.97
2019-05-10T03:22:19.431Z,18.30
2019-05-10T03:24:48.027Z,18.13
2019-05-10T03:27:16.669Z,17.33
2019-05-10T03:29:46.377Z,16.37
2019-05-10T03:32:15.195Z,16.33
2019-05-10T03:34:43.955Z,16.93
2019-05-10T03:37:13.040Z,16.43
2019-05-10T03:39:43.439Z,17.10
2019-05-10T03:42:13.281Z,16.97
2019-05-10T03:44:58.282Z,16.33
2019-05-10T03:47:42.216Z,15.83
2019-05-10T03:50:20.580Z,16.17
2019-05-10T04:01:30.169Z,14.70
2019-05-10T04:04:04.241Z,13.70
2019-05-10T04:06:42.169Z,11.83
2019-05-10T04:18:59.653Z,10.50
2019-05-10T04:21:30.185Z,10.77
2019-05-10T04:23:58.947Z,9.27
2019-05-10T04:26:28.069Z,9.13
2019-05-10T04:28:56.961Z,8.43
2019-05-10T04:31:25.803Z,9.27
2019-05-10T04:33:54.721Z,8.70
2019-05-10T04:36:23.468Z,8.43
2019-05-10T04:38:57.072Z,7.93
2019-05-10T04:41:29.473Z,8.20
2019-05-10T04:44:05.788Z,7.20
2019-05-10T04:46:43.218Z,7.10
2019-05-10T04:49:45.082Z,6.93
2019-05-10T04:52:36.835Z,6.53
2019-05-10T04:58:44.441Z,6.07
2019-05-10T05:07:27.066Z,5.73
2019-05-10T05:09:55.903Z,7.60
2019-05-10T05:12:24.607Z,7.47
2019-05-10T05:14:53.521Z,6.10
2019-05-10T05:17:23.641Z,7.33
2019-05-10T05:19:52.350Z,10.17
2019-05-10T05:22:29.367Z,7.83
2019-05-10T05:25:01.322Z,8.60
2019-05-10T05:27:28.589Z,8.30
2019-05-10T05:29:57.256Z,8.40
2019-05-10T05:32:25.911Z,8.50
2019-05-10T05:34:54.677Z,9.13
2019-05-10T05:37:23.259Z,9.90
2019-05-10T05:39:51.797Z,9.80
2019-05-10T05:42:25.934Z,9.43
2019-05-10T05:44:56.654Z,12.10
2019-05-10T05:47:25.633Z,10.03
2019-05-10T05:49:57.467Z,9.77
2019-05-10T05:52:37.251Z,9.40
2019-05-10T05:55:11.257Z,10.83
2019-05-10T05:57:40.861Z,9.27
2019-05-10T06:00:10.170Z,9.27
2019-05-10T06:02:44.257Z,10.00
2019-05-10T06:05:09.463Z,10.10
2019-05-10T06:07:39.392Z,9.73
2019-05-10T06:10:16.669Z,9.53
2019-05-10T06:12:39.293Z,9.67
2019-05-10T06:18:52.766Z,9.50
2019-05-10T06:21:31.069Z,10.33
2019-05-10T06:27:13.272Z,10.80
2019-05-10T06:29:46.684Z,10.87
2019-05-10T06:32:26.124Z,12.03
2019-05-10T06:34:56.321Z,12.13
2019-05-10T06:37:38.826Z,13.20
2019-05-10T06:40:06.469Z,11.83
2019-05-10T06:42:36.231Z,12.70
2019-05-10T06:45:34.477Z,12.37
2019-05-10T06:48:00.550Z,13.33
2019-05-10T06:50:31.764Z,13.13
2019-05-10T06:53:11.348Z,13.17
2019-05-10T06:55:40.197Z,12.43
2019-05-10T06:58:09.060Z,13.30
2019-05-10T07:00:44.926Z,14.13
2019-05-10T07:03:12.752Z,13.57
2019-05-10T07:05:47.795Z,12.10
2019-05-10T07:08:20.368Z,11.20
2019-05-10T07:10:47.053Z,10.93
2019-05-10T07:13:15.653Z,11.77
2019-05-10T07:15:45.133Z,11.30
2019-05-10T07:18:22.564Z,11.27
2019-05-10T07:20:49.944Z,10.13
2019-05-10T07:23:18.633Z,10.63
2019-05-10T07:25:49.365Z,10.70
2019-05-10T07:28:20.772Z,11.40
2019-05-10T07:30:49.757Z,9.57
2019-05-10T07:33:18.626Z,8.63
2019-05-10T07:35:48.693Z,5.83
2019-05-10T07:38:31.013Z,7.23
2019-05-10T07:40:56.912Z,5.83
2019-05-10T07:43:28.686Z,6.13
2019-05-10T07:45:58.855Z,6.33
2019-05-10T07:48:26.560Z,5.93
2019-05-10T07:50:55.717Z,5.57
2019-05-10T07:53:27.669Z,5.20
2019-05-10T07:56:00.014Z,5.13
2019-05-10T07:58:28.474Z,5.60
2019-05-10T08:00:57.247Z,5.53
2019-05-10T08:03:26.077Z,5.90
2019-05-10T08:06:03.711Z,5.50
2019-05-10T08:08:39.361Z,5.30
2019-05-10T08:11:08.657Z,5.20
2019-05-10T08:13:39.333Z,5.20
2019-05-10T08:16:18.884Z,5.60
2019-05-10T08:18:44.277Z,5.60
2019-05-10T08:21:23.915Z,5.23
2019-05-10T08:23:51.864Z,5.77
2019-05-10T08:26:24.845Z,5.10
2019-05-10T08:28:53.202Z,5.00
2019-05-10T08:31:26.224Z,5.50
2019-05-10T08:33:58.937Z,5.00
2019-05-10T08:36:27.655Z,5.43
2019-05-10T08:39:07.003Z,5.03
2019-05-10T08:41:35.746Z,5.27
2019-05-10T08:44:26.791Z,4.63
2019-05-10T08:49:22.092Z,4.33
2019-05-10T08:51:52.231Z,4.50
2019-05-10T08:54:26.348Z,4.87
2019-05-10T08:57:08.411Z,4.70
2019-05-10T08:59:36.947Z,5.17
2019-05-10T09:02:12.584Z,4.37
2019-05-10T09:04:42.831Z,4.73
2019-05-10T09:07:12.838Z,4.97
2019-05-10T09:09:45.931Z,5.07
2019-05-10T09:12:12.313Z,3.93
2019-05-10T09:14:43.963Z,3.60
2019-05-10T09:17:17.150Z,4.30
2019-05-10T09:19:44.246Z,4.37
2019-05-10T09:22:13.109Z,3.97
2019-05-10T09:24:48.518Z,3.73
2019-05-10T09:27:13.303Z,3.13
2019-05-10T09:29:56.595Z,3.63
2019-05-10T09:33:49.246Z,3.73
2019-05-10T09:35:24.891Z,2.87
2019-05-10T09:37:58.415Z,2.87
2019-05-10T09:40:28.107Z,2.97
2019-05-10T09:42:59.377Z,4.00
2019-05-10T09:45:27.283Z,3.53
2019-05-10T09:47:57.939Z,3.10
2019-05-10T09:50:30.529Z,2.90
2019-05-10T09:52:57.065Z,2.50
2019-05-10T09:55:27.857Z,3.27
2019-05-10T09:57:58.252Z,3.13
2019-05-10T10:00:31.879Z,3.10
2019-05-10T10:03:01.844Z,3.43
2019-05-10T10:05:30.801Z,2.97
2019-05-10T10:08:03.580Z,3.00
2019-05-10T10:10:32.434Z,3.10
2019-05-10T10:13:08.497Z,2.27
2019-05-10T10:15:34.186Z,2.20
2019-05-10T10:18:00.577Z,2.10
2019-05-10T10:20:30.000Z,2.10
2019-05-10T10:22:58.886Z,2.90
2019-05-10T10:25:29.933Z,2.33
2019-05-10T10:27:57.806Z,2.57
2019-05-10T10:30:27.556Z,2.57
2019-05-10T10:32:58.113Z,2.57
2019-05-10T10:35:29.702Z,2.33
2019-05-10T10:37:57.563Z,2.23
2019-05-10T10:40:27.933Z,1.90
2019-05-10T10:42:57.799Z,2.43
2019-05-10T10:45:27.677Z,2.23
2019-05-10T10:47:57.407Z,2.53
2019-05-10T10:50:27.573Z,2.07
2019-05-10T10:52:57.543Z,1.90
2019-05-10T10:55:32.448Z,2.10
2019-05-10T10:57:57.672Z,2.27
2019-05-10T11:00:34.091Z,1.90
2019-05-10T11:03:04.294Z,1.97
2019-05-10T11:05:33.081Z,1.70
2019-05-10T11:08:01.826Z,2.00
2019-05-10T11:10:31.628Z,1.90
2019-05-10T11:13:10.725Z,2.07
2019-05-10T11:15:36.311Z,1.90
2019-05-10T11:18:03.580Z,1.90
2019-05-10T11:20:32.207Z,1.57
2019-05-10T11:23:00.775Z,1.87
2019-05-10T11:25:29.474Z,1.50
2019-05-10T11:27:59.234Z,1.63
2019-05-10T11:30:28.435Z,1.50
2019-05-10T11:32:57.222Z,2.13
2019-05-10T11:35:31.170Z,1.90
2019-05-10T11:37:56.467Z,1.70
2019-05-10T11:40:30.914Z,1.73
2019-05-10T11:42:56.586Z,1.80
2019-05-10T11:45:34.486Z,1.70
2019-05-10T11:47:59.235Z,1.80
2019-05-10T11:50:34.372Z,2.30
2019-05-10T11:52:57.405Z,1.70
2019-05-10T11:55:42.878Z,1.90
2019-05-10T11:58:08.906Z,2.03
2019-05-10T12:00:41.288Z,1.70
2019-05-10T12:03:14.812Z,1.60
2019-05-10T12:05:37.073Z,1.60
2019-05-10T12:08:12.988Z,1.67
2019-05-10T12:10:44.882Z,1.93
2019-05-10T12:13:19.417Z,1.90
2019-05-10T12:15:42.955Z,1.80
2019-05-10T12:20:55.745Z,2.13
2019-05-10T12:23:21.948Z,2.20
2019-05-10T12:25:58.986Z,1.93
2019-05-10T12:26:26.522Z,1.83
2019-05-10T12:28:15.352Z,2.40
2019-05-10T12:33:24.872Z,2.10
2019-05-10T12:35:52.109Z,2.10
2019-05-10T12:38:23.466Z,2.00
2019-05-10T12:40:56.194Z,1.80
2019-05-10T12:43:24.977Z,1.90
2019-05-10T12:45:55.398Z,2.03
2019-05-10T12:48:24.338Z,2.30
2019-05-10T12:50:58.060Z,2.13
2019-05-10T12:53:27.226Z,1.83
2019-05-10T12:55:59.755Z,1.73
2019-05-10T12:58:31.568Z,2.40
2019-05-10T13:01:00.371Z,2.23
2019-05-10T13:03:32.088Z,1.83
2019-05-10T13:05:59.303Z,1.80
2019-05-10T13:08:28.099Z,1.83
2019-05-10T13:10:56.721Z,1.67
2019-05-10T13:13:30.614Z,2.83
2019-05-10T13:16:03.675Z,2.10
2019-05-10T13:18:49.728Z,1.70
2019-05-10T13:24:42.920Z,2.30
2019-05-10T13:27:13.272Z,2.10
2019-05-10T13:29:47.098Z,1.70
2019-05-10T13:32:20.687Z,1.67
2019-05-10T13:34:49.637Z,2.17
2019-05-10T13:37:24.577Z,1.73
2019-05-10T13:39:52.021Z,1.80
2019-05-10T13:42:20.537Z,1.60
2019-05-10T13:44:52.211Z,1.87
2019-05-10T13:47:20.968Z,1.57
2019-05-10T13:49:49.731Z,1.50
2019-05-10T13:52:18.452Z,1.60
2019-05-10T13:54:47.141Z,1.70
2019-05-10T13:57:15.791Z,1.80
2019-05-10T13:59:48.874Z,1.70
2019-05-10T14:02:22.885Z,1.80
2019-05-10T14:04:47.421Z,1.47
2019-05-10T14:07:17.535Z,1.57
2019-05-10T14:09:46.248Z,1.97
2019-05-10T14:12:16.289Z,1.20
2019-05-10T14:14:45.464Z,1.93
2019-05-10T14:17:14.220Z,1.77
2019-05-10T14:19:42.769Z,2.30
2019-05-10T14:22:11.482Z,8.57
2019-05-10T14:24:40.331Z,8.90
2019-05-10T14:27:09.049Z,10.10
2019-05-10T14:29:37.600Z,10.97
2019-05-10T14:32:06.277Z,11.67
2019-05-10T14:37:29.282Z,11.73
2019-05-10T14:39:57.910Z,12.70
2019-05-10T14:42:31.189Z,11.70
2019-05-10T14:44:56.962Z,15.70
2019-05-10T14:47:32.989Z,12.80
2019-05-10T14:50:03.369Z,11.93
2019-05-10T14:52:32.116Z,13.37
2019-05-10T14:55:02.366Z,14.23
2019-05-10T14:57:31.088Z,13.97
2019-05-10T14:59:59.652Z,13.50
2019-05-10T15:02:32.077Z,12.57
2019-05-10T15:05:15.638Z,11.77
2019-05-10T15:07:50.924Z,13.13
2019-05-10T15:10:18.057Z,14.37
2019-05-10T15:12:46.637Z,12.60
2019-05-10T15:15:15.552Z,12.93
2019-05-10T15:17:44.207Z,14.07
2019-05-10T15:20:13.431Z,13.75
2019-05-10T15:22:42.195Z,13.33
2019-05-10T15:25:11.066Z,13.80
2019-05-10T15:27:39.732Z,14.07
2019-05-10T15:30:14.259Z,12.93
2019-05-10T15:32:43.040Z,13.13
2019-05-10T15:35:21.431Z,12.77
2019-05-10T15:37:50.022Z,13.50
2019-05-10T15:40:19.043Z,12.20
2019-05-10T15:42:47.820Z,13.53
2019-05-10T15:45:19.855Z,12.80
2019-05-10T15:47:51.606Z,13.33
2019-05-10T15:50:19.009Z,12.57
2019-05-10T15:52:48.846Z,14.20
2019-05-10T15:55:28.286Z,12.73
2019-05-10T15:59:23.525Z,13.13
2019-05-10T16:00:37.404Z,13.47
2019-05-10T16:03:00.952Z,13.13
2019-05-10T16:05:43.002Z,11.97
2019-05-10T16:08:01.161Z,12.67
2019-05-10T16:10:39.590Z,11.73
2019-05-10T16:13:06.470Z,11.50
2019-05-10T16:15:36.734Z,10.90
2019-05-10T16:18:05.943Z,13.57
2019-05-10T16:20:37.314Z,13.93
2019-05-10T16:23:08.696Z,13.20
2019-05-10T16:25:47.650Z,13.20
2019-05-10T16:28:15.505Z,14.47
2019-05-10T16:30:46.621Z,14.07
2019-05-10T16:33:18.190Z,14.98
2019-05-10T16:35:50.101Z,13.40
2019-05-10T16:38:19.761Z,12.83
2019-05-10T16:40:57.294Z,13.33
2019-05-10T16:43:23.870Z,14.47
2019-05-10T16:45:49.555Z,12.93
2019-05-10T16:48:22.118Z,13.27
2019-05-10T16:50:50.682Z,13.27
2019-05-10T16:53:21.901Z,13.60
2019-05-10T16:55:50.430Z,13.10
2019-05-10T16:58:22.249Z,13.50
2019-05-10T17:00:49.311Z,12.40
2019-05-10T17:03:18.936Z,11.93
2019-05-10T17:05:53.426Z,13.03
2019-05-10T17:08:18.834Z,12.27
2019-05-10T17:10:47.429Z,13.33
2019-05-10T17:13:16.120Z,14.30
2019-05-10T17:15:44.616Z,15.33
2019-05-10T17:18:17.530Z,23.47
2019-05-10T17:20:45.343Z,26.30
2019-05-10T17:23:14.432Z,20.80
2019-05-10T17:25:43.663Z,22.57
2019-05-10T17:28:12.303Z,23.80
2019-05-10T17:30:44.820Z,21.00
2019-05-10T17:33:15.060Z,11.60
2019-05-10T17:35:46.496Z,6.80
2019-05-10T17:38:16.284Z,5.20
2019-05-10T17:40:49.815Z,7.27
2019-05-10T17:43:22.677Z,8.73
2019-05-10T17:45:49.940Z,7.70
2019-05-10T17:48:18.572Z,8.47
2019-05-10T17:50:47.272Z,8.87
2019-05-10T17:53:15.912Z,10.00
2019-05-10T17:55:49.164Z,9.83
2019-05-10T17:58:17.026Z,10.57
2019-05-10T18:00:45.734Z,10.50
2019-05-10T18:03:14.433Z,9.20
2019-05-10T18:05:46.868Z,9.10
2019-05-10T18:08:13.525Z,10.90
2019-05-10T18:10:42.232Z,8.17
2019-05-10T18:13:10.842Z,8.60
2019-05-10T18:15:39.336Z,9.60
2019-05-10T18:18:07.850Z,11.37
2019-05-10T18:20:42.246Z,9.80
2019-05-10T18:23:08.402Z,8.87
2019-05-10T18:25:37.042Z,9.40
2019-05-10T18:28:05.729Z,9.43
2019-05-10T18:30:34.442Z,10.50
2019-05-10T18:33:06.672Z,11.20
2019-05-10T18:35:34.808Z,12.30
2019-05-10T18:38:03.442Z,11.70
2019-05-10T18:40:33.538Z,11.07
2019-05-10T18:43:05.751Z,11.83
2019-05-10T18:45:34.322Z,12.73
2019-05-10T18:48:02.894Z,10.53
2019-05-10T18:50:31.435Z,9.40
2019-05-10T18:53:05.952Z,8.17
2019-05-10T18:55:34.662Z,8.73
2019-05-10T18:58:03.272Z,9.30
2019-05-10T19:00:40.253Z,9.10
2019-05-10T19:03:11.517Z,10.93
2019-05-10T19:05:40.451Z,10.90
2019-05-10T19:08:09.114Z,11.13
2019-05-10T19:10:37.710Z,11.03
2019-05-10T19:13:06.620Z,9.90
2019-05-10T19:15:35.635Z,9.83
2019-05-10T19:18:04.440Z,11.43
2019-05-10T19:20:32.956Z,10.90
2019-05-10T19:23:04.765Z,12.63
2019-05-10T19:25:31.816Z,11.97
2019-05-10T19:28:00.616Z,10.93
2019-05-10T19:30:29.184Z,10.07
2019-05-10T19:32:58.122Z,9.60
2019-05-10T19:35:29.876Z,12.27
2019-05-10T19:37:57.002Z,10.80
2019-05-10T19:40:25.582Z,10.80
2019-05-10T19:42:54.200Z,9.70
2019-05-10T19:45:22.768Z,8.13
2019-05-10T19:47:55.657Z,8.13
2019-05-10T19:50:24.349Z,9.83
2019-05-10T19:52:51.873Z,8.67
2019-05-10T19:55:21.779Z,8.70
2019-05-10T19:57:54.841Z,7.60
2019-05-10T20:00:26.796Z,8.10
2019-05-10T20:02:55.814Z,8.90
2019-05-10T20:05:24.446Z,9.47
2019-05-10T20:07:53.064Z,8.50
2019-05-10T20:10:21.838Z,9.03
2019-05-10T20:12:50.400Z,9.00
2019-05-10T20:15:19.037Z,9.70
2019-05-10T20:17:47.686Z,9.17
2019-05-10T20:20:16.333Z,10.33
2019-05-10T20:22:45.016Z,9.40
2019-05-10T20:25:14.152Z,8.90
2019-05-10T20:27:42.652Z,8.93
2019-05-10T20:30:11.628Z,9.23
2019-05-10T20:32:40.196Z,9.07
2019-05-10T20:35:09.378Z,8.63
2019-05-10T20:37:37.904Z,9.17
2019-05-10T20:40:07.196Z,9.67
2019-05-10T20:42:35.710Z,9.70
2019-05-10T20:45:07.980Z,10.30
2019-05-10T20:47:34.920Z,10.37
2019-05-10T20:50:03.921Z,11.53
2019-05-10T20:52:32.548Z,11.27
2019-05-10T20:55:01.391Z,11.30
2019-05-10T20:57:29.863Z,11.40
2019-05-10T20:59:58.558Z,12.73
2019-05-10T21:02:27.193Z,12.63
2019-05-10T21:05:00.926Z,15.27
2019-05-10T21:07:29.582Z,15.60
2019-05-10T21:09:58.288Z,19.37
2019-05-10T21:12:26.839Z,20.07
2019-05-10T21:14:55.518Z,18.80
2019-05-10T21:17:24.077Z,19.03
2019-05-10T21:19:52.710Z,19.80
2019-05-10T21:22:21.554Z,20.70
2019-05-10T21:24:50.129Z,22.00
2019-05-10T21:27:18.616Z,21.37
2019-05-10T21:29:47.364Z,23.57
2019-05-10T21:32:15.931Z,23.00
2019-05-10T21:34:44.573Z,23.03
2019-05-10T21:37:13.156Z,21.60
2019-05-10T21:39:41.718Z,22.83
2019-05-10T21:42:10.694Z,22.57
2019-05-10T21:44:41.914Z,23.10
2019-05-10T21:47:10.850Z,23.13
2019-05-10T21:49:39.518Z,22.63
2019-05-10T21:52:08.140Z,22.50
2019-05-10T21:54:36.823Z,21.50
2019-05-10T21:57:05.548Z,23.27
2019-05-10T21:59:34.111Z,21.60
2019-05-10T22:02:15.384Z,23.23
2019-05-10T22:04:47.809Z,22.70
2019-05-10T22:07:14.542Z,23.87
2019-05-10T22:09:44.979Z,23.53
2019-05-10T22:12:13.565Z,124.13
2019-05-10T22:14:42.425Z,25.67
2019-05-10T22:17:11.205Z,23.27
2019-05-10T22:19:40.059Z,23.10
2019-05-10T22:22:08.771Z,23.60
2019-05-10T22:24:37.673Z,24.83
2019-05-10T22:27:06.309Z,24.87
2019-05-10T22:29:34.987Z,24.30
2019-05-10T22:32:03.958Z,23.67
2019-05-10T22:34:32.832Z,24.23
2019-05-10T22:37:01.563Z,23.83
2019-05-10T22:39:30.179Z,22.67
2019-05-10T22:41:58.953Z,24.63
2019-05-10T22:44:27.837Z,24.10
2019-05-10T22:46:56.614Z,23.67
2019-05-10T22:49:25.264Z,24.93
2019-05-10T22:51:54.037Z,24.70
2019-05-10T22:54:22.744Z,25.57
2019-05-10T22:56:51.399Z,26.03
2019-05-10T22:59:20.013Z,25.13
2019-05-10T23:01:48.747Z,25.40
2019-05-10T23:04:17.441Z,25.43
2019-05-10T23:06:46.218Z,24.57
2019-05-10T23:09:24.033Z,25.47
2019-05-10T23:11:45.127Z,25.83
2019-05-10T23:14:13.853Z,25.27
2019-05-10T23:16:42.435Z,26.13
2019-05-10T23:19:11.085Z,27.00
2019-05-10T23:21:42.372Z,26.43
2019-05-10T23:24:27.098Z,26.80
2019-05-10T23:26:55.760Z,26.93
2019-05-10T23:29:24.351Z,26.33
2019-05-10T23:31:53.023Z,27.00
2019-05-10T23:34:21.605Z,27.47
2019-05-10T23:36:50.344Z,28.37
2019-05-10T23:39:19.026Z,28.63
2019-05-10T23:41:47.657Z,30.10
2019-05-10T23:44:16.282Z,31.17
2019-05-10T23:46:44.866Z,31.73
2019-05-10T23:49:13.497Z,31.63
2019-05-10T23:51:42.068Z,32.27
2019-05-10T23:54:10.631Z,32.20
2019-05-10T23:56:39.193Z,33.30
2019-05-10T23:59:07.855Z,33.07
